createdAt,value
2022-09-28T00:00:21.444Z,65.10
2022-09-28T00:01:21.448Z,61.81
2022-09-28T00:02:21.444Z,66.07
2022-09-28T00:03:21.382Z,62.62
2022-09-28T00:04:21.375Z,61.37
2022-09-28T00:05:21.416Z,63.59
2022-09-28T00:06:21.346Z,65.31
2022-09-28T00:07:21.326Z,62.99
2022-09-28T00:08:21.342Z,64.03
2022-09-28T00:09:21.319Z,63.11
2022-09-28T00:10:21.305Z,64.65
2022-09-28T00:11:21.319Z,61.69
2022-09-28T00:12:21.283Z,63.19
2022-09-28T00:13:21.271Z,63.13
2022-09-28T00:14:21.276Z,63.46
2022-09-28T00:15:21.256Z,61.94
2022-09-28T00:16:21.340Z,64.69
2022-09-28T00:17:21.235Z,63.96
2022-09-28T00:18:22.223Z,63.09
2022-09-28T00:19:21.208Z,62.21
2022-09-28T00:20:21.208Z,64.11
2022-09-28T00:21:21.222Z,62.36
2022-09-28T00:22:21.168Z,66.03
2022-09-28T00:23:21.166Z,66.15
2022-09-28T00:24:25.266Z,66.03
2022-09-28T00:25:21.145Z,65.38
2022-09-28T00:26:21.152Z,62.61
2022-09-28T00:27:21.128Z,58.54
2022-09-28T00:28:21.099Z,63.74
2022-09-28T00:29:21.085Z,63.98
2022-09-28T00:30:21.087Z,65.14
2022-09-28T00:31:21.081Z,63.56
2022-09-28T00:32:21.085Z,63.17
2022-09-28T00:33:21.060Z,63.71
2022-09-28T00:34:21.024Z,61.52
2022-09-28T00:35:21.022Z,61.14
2022-09-28T00:36:21.014Z,65.80
2022-09-28T00:37:21.053Z,66.40
2022-09-28T00:38:20.984Z,63.14
2022-09-28T00:39:20.985Z,64.25
2022-09-28T00:40:21.012Z,64.91
2022-09-28T00:41:20.945Z,62.73
2022-09-28T00:42:20.948Z,67.88
2022-09-28T00:43:20.948Z,65.30
2022-09-28T00:44:20.928Z,62.87
2022-09-28T00:45:20.918Z,64.51
2022-09-28T00:46:21.268Z,67.01
2022-09-28T00:47:21.064Z,66.53
2022-09-28T00:48:20.886Z,64.45
2022-09-28T00:49:20.857Z,62.45
2022-09-28T00:50:20.865Z,63.08
2022-09-28T00:51:20.854Z,65.30
2022-09-28T00:52:20.835Z,62.68
2022-09-28T00:53:20.858Z,65.28
2022-09-28T00:54:20.816Z,63.96
2022-09-28T00:55:21.089Z,64.28
2022-09-28T00:56:20.807Z,61.93
2022-09-28T00:57:20.776Z,64.84
2022-09-28T00:58:20.791Z,62.55
2022-09-28T00:59:20.767Z,64.04
2022-09-28T01:00:20.753Z,64.21
2022-09-28T01:01:20.798Z,59.52
2022-09-28T01:02:20.779Z,61.33
2022-09-28T01:03:20.765Z,63.91
2022-09-28T01:04:20.716Z,64.90
2022-09-28T01:05:20.709Z,63.25
2022-09-28T01:06:20.688Z,64.51
2022-09-28T01:07:20.681Z,62.87
2022-09-28T01:08:20.704Z,62.08
2022-09-28T01:09:21.664Z,65.54
2022-09-28T01:10:20.642Z,66.02
2022-09-28T01:11:20.643Z,65.31
2022-09-28T01:12:20.634Z,67.19
2022-09-28T01:13:20.613Z,64.14
2022-09-28T01:14:20.650Z,65.12
2022-09-28T01:15:20.593Z,64.02
2022-09-28T01:16:20.633Z,61.98
2022-09-28T01:17:20.581Z,66.18
2022-09-28T01:18:20.557Z,64.69
2022-09-28T01:19:20.578Z,64.15
2022-09-28T01:20:20.538Z,65.42
2022-09-28T01:21:21.523Z,64.09
2022-09-28T01:22:20.583Z,65.60
2022-09-28T01:23:20.514Z,65.31
2022-09-28T01:24:20.496Z,62.11
2022-09-28T01:25:20.514Z,64.38
2022-09-28T01:26:20.482Z,63.39
2022-09-28T01:27:20.450Z,65.97
2022-09-28T01:28:20.455Z,64.93
2022-09-28T01:29:20.459Z,65.57
2022-09-28T01:30:20.469Z,64.55
2022-09-28T01:31:20.428Z,63.71
2022-09-28T01:32:20.421Z,63.50
2022-09-28T01:33:20.394Z,66.45
2022-09-28T01:34:20.389Z,65.16
2022-09-28T01:35:20.377Z,65.98
2022-09-28T01:36:20.383Z,66.28
2022-09-28T01:37:20.346Z,63.30
2022-09-28T01:38:20.353Z,66.64
2022-09-28T01:39:20.322Z,63.73
2022-09-28T01:40:20.334Z,65.26
2022-09-28T01:41:20.991Z,65.67
2022-09-28T01:42:20.295Z,65.96
2022-09-28T01:43:20.286Z,66.30
2022-09-28T01:44:20.288Z,63.45
2022-09-28T01:45:20.262Z,63.60
2022-09-28T01:46:20.354Z,64.95
2022-09-28T01:47:20.276Z,67.29
2022-09-28T01:48:20.228Z,65.11
2022-09-28T01:49:20.208Z,65.06
2022-09-28T01:50:20.789Z,67.67
2022-09-28T01:51:20.196Z,64.30
2022-09-28T01:52:20.187Z,62.76
2022-09-28T01:53:20.182Z,65.23
2022-09-28T01:54:20.158Z,65.70
2022-09-28T01:55:20.151Z,65.08
2022-09-28T01:56:20.153Z,65.61
2022-09-28T01:57:20.156Z,66.14
2022-09-28T01:58:20.127Z,67.16
2022-09-28T01:59:20.121Z,64.01
2022-09-28T02:00:20.101Z,63.59
2022-09-28T02:01:20.133Z,63.31
2022-09-28T02:02:20.198Z,64.65
2022-09-28T02:03:20.065Z,64.05
2022-09-28T02:04:20.056Z,62.38
2022-09-28T02:05:20.032Z,65.65
2022-09-28T02:06:20.016Z,66.67
2022-09-28T02:07:20.027Z,64.16
2022-09-28T02:08:20.014Z,61.42
2022-09-28T02:09:19.992Z,63.10
2022-09-28T02:10:19.987Z,65.19
2022-09-28T02:11:19.983Z,64.17
2022-09-28T02:12:19.960Z,65.91
2022-09-28T02:13:19.959Z,63.58
2022-09-28T02:14:19.939Z,67.02
2022-09-28T02:15:19.919Z,63.56
2022-09-28T02:16:20.004Z,65.77
2022-09-28T02:17:19.908Z,65.73
2022-09-28T02:18:19.900Z,65.41
2022-09-28T02:19:19.891Z,65.47
2022-09-28T02:20:19.868Z,64.45
2022-09-28T02:21:19.854Z,62.83
2022-09-28T02:22:19.845Z,63.88
2022-09-28T02:23:19.871Z,64.62
2022-09-28T02:24:21.738Z,66.90
2022-09-28T02:25:19.802Z,65.58
2022-09-28T02:26:19.813Z,66.60
2022-09-28T02:27:19.779Z,65.73
2022-09-28T02:28:19.810Z,65.41
2022-09-28T02:29:19.769Z,62.70
2022-09-28T02:30:19.754Z,64.56
2022-09-28T02:31:19.786Z,65.57
2022-09-28T02:32:19.755Z,65.35
2022-09-28T02:33:19.727Z,64.90
2022-09-28T02:34:19.719Z,66.95
2022-09-28T02:35:19.708Z,64.16
2022-09-28T02:36:19.680Z,66.01
2022-09-28T02:37:19.668Z,66.03
2022-09-28T02:38:19.677Z,65.63
2022-09-28T02:39:19.684Z,65.47
2022-09-28T02:40:19.672Z,65.76
2022-09-28T02:41:19.646Z,64.20
2022-09-28T02:42:19.624Z,65.27
2022-09-28T02:43:19.616Z,65.85
2022-09-28T02:44:19.659Z,65.92
2022-09-28T02:45:19.606Z,65.25
2022-09-28T02:46:19.635Z,64.87
2022-09-28T02:47:19.588Z,63.79
2022-09-28T02:48:35.938Z,66.23
2022-09-28T02:49:22.033Z,64.53
2022-09-28T02:50:19.559Z,65.84
2022-09-28T02:51:19.540Z,65.43
2022-09-28T02:52:19.521Z,66.28
2022-09-28T02:53:19.515Z,64.41
2022-09-28T02:54:19.487Z,62.82
2022-09-28T02:55:19.490Z,64.49
2022-09-28T02:56:19.481Z,63.92
2022-09-28T02:57:19.459Z,63.52
2022-09-28T02:58:19.444Z,63.30
2022-09-28T02:59:19.439Z,63.29
2022-09-28T03:00:19.463Z,64.06
2022-09-28T03:01:19.470Z,62.83
2022-09-28T03:02:19.488Z,64.20
2022-09-28T03:03:19.406Z,65.94
2022-09-28T03:04:19.389Z,66.11
2022-09-28T03:05:19.429Z,64.07
2022-09-28T03:06:19.366Z,64.87
2022-09-28T03:07:19.367Z,62.48
2022-09-28T03:08:19.354Z,66.01
2022-09-28T03:09:19.327Z,63.55
2022-09-28T03:10:19.321Z,63.53
2022-09-28T03:11:19.336Z,66.87
2022-09-28T03:12:19.306Z,65.50
2022-09-28T03:13:19.293Z,64.86
2022-09-28T03:14:19.286Z,65.30
2022-09-28T03:15:19.272Z,64.92
2022-09-28T03:16:19.352Z,64.51
2022-09-28T03:17:19.269Z,64.77
2022-09-28T03:18:19.237Z,64.63
2022-09-28T03:19:19.210Z,64.95
2022-09-28T03:20:19.232Z,66.30
2022-09-28T03:21:19.231Z,64.83
2022-09-28T03:22:19.189Z,64.39
2022-09-28T03:23:24.776Z,64.86
2022-09-28T03:24:21.176Z,62.09
2022-09-28T03:25:19.155Z,64.13
2022-09-28T03:26:19.142Z,63.39
2022-09-28T03:27:19.168Z,64.58
2022-09-28T03:28:19.137Z,63.43
2022-09-28T03:29:19.173Z,64.80
2022-09-28T03:30:19.097Z,66.18
2022-09-28T03:31:19.150Z,64.91
2022-09-28T03:32:19.126Z,66.16
2022-09-28T03:33:19.068Z,63.00
2022-09-28T03:34:19.077Z,64.91
2022-09-28T03:35:19.035Z,65.39
2022-09-28T03:36:19.028Z,64.14
2022-09-28T03:37:19.033Z,64.75
2022-09-28T03:38:19.037Z,64.81
2022-09-28T03:39:19.065Z,63.54
2022-09-28T03:40:19.090Z,65.17
2022-09-28T03:41:18.987Z,65.31
2022-09-28T03:42:18.968Z,65.79
2022-09-28T03:43:18.984Z,64.65
2022-09-28T03:44:18.934Z,65.23
2022-09-28T03:45:18.942Z,64.57
2022-09-28T03:46:18.945Z,65.49
2022-09-28T03:47:18.905Z,65.46
2022-09-28T03:48:23.943Z,63.22
2022-09-28T03:49:18.883Z,62.83
2022-09-28T03:50:18.880Z,64.44
2022-09-28T03:51:18.895Z,65.87
2022-09-28T03:52:18.866Z,64.81
2022-09-28T03:53:18.910Z,66.33
2022-09-28T03:54:18.844Z,64.55
2022-09-28T03:55:18.819Z,64.58
2022-09-28T03:56:18.811Z,65.90
2022-09-28T03:57:18.837Z,64.40
2022-09-28T03:58:18.853Z,66.18
2022-09-28T03:59:18.877Z,64.22
2022-09-28T04:00:18.797Z,63.67
2022-09-28T04:01:18.819Z,62.74
2022-09-28T04:02:18.803Z,63.56
2022-09-28T04:03:18.734Z,63.83
2022-09-28T04:04:18.803Z,61.73
2022-09-28T04:05:18.711Z,63.63
2022-09-28T04:06:18.705Z,64.12
2022-09-28T04:07:18.707Z,65.80
2022-09-28T04:08:18.710Z,65.61
2022-09-28T04:09:18.830Z,65.44
2022-09-28T04:10:18.703Z,66.50
2022-09-28T04:11:18.659Z,64.56
2022-09-28T04:12:18.672Z,65.47
2022-09-28T04:13:18.645Z,64.08
2022-09-28T04:14:18.633Z,64.36
2022-09-28T04:15:18.649Z,65.73
2022-09-28T04:16:18.701Z,65.16
2022-09-28T04:17:18.590Z,65.72
2022-09-28T04:18:18.594Z,65.92
2022-09-28T04:19:18.654Z,65.76
2022-09-28T04:20:18.589Z,65.71
2022-09-28T04:21:18.567Z,65.35
2022-09-28T04:22:18.555Z,65.17
2022-09-28T04:23:18.545Z,65.63
2022-09-28T04:24:18.528Z,65.53
2022-09-28T04:25:18.522Z,66.05
2022-09-28T04:26:18.541Z,62.59
2022-09-28T04:27:18.501Z,64.87
2022-09-28T04:28:18.477Z,64.61
2022-09-28T04:29:18.677Z,64.34
2022-09-28T04:30:18.452Z,66.20
2022-09-28T04:31:18.525Z,64.33
2022-09-28T04:32:18.428Z,65.69
2022-09-28T04:33:18.415Z,63.75
2022-09-28T04:34:18.409Z,65.10
2022-09-28T04:35:18.754Z,63.46
2022-09-28T04:36:18.379Z,64.41
2022-09-28T04:37:18.408Z,63.28
2022-09-28T04:38:26.880Z,65.16
2022-09-28T04:39:18.544Z,64.06
2022-09-28T04:40:18.365Z,64.34
2022-09-28T04:41:18.341Z,65.08
2022-09-28T04:42:18.356Z,63.16
2022-09-28T04:43:18.366Z,65.48
2022-09-28T04:44:18.576Z,64.53
2022-09-28T04:45:18.267Z,64.30
2022-09-28T04:46:18.361Z,65.07
2022-09-28T04:47:18.312Z,64.94
2022-09-28T04:48:18.244Z,63.03
2022-09-28T04:49:18.405Z,64.28
2022-09-28T04:50:18.227Z,64.96
2022-09-28T04:51:18.203Z,63.15
2022-09-28T04:52:18.767Z,64.45
2022-09-28T04:53:18.195Z,65.70
2022-09-28T04:54:18.185Z,65.85
2022-09-28T04:55:18.186Z,65.61
2022-09-28T04:56:18.147Z,64.07
2022-09-28T04:57:18.145Z,65.01
2022-09-28T04:58:18.195Z,65.79
2022-09-28T04:59:18.313Z,65.50
2022-09-28T05:00:18.118Z,63.72
2022-09-28T05:01:18.196Z,64.14
2022-09-28T05:02:18.137Z,64.56
2022-09-28T05:03:18.127Z,63.61
2022-09-28T05:04:20.312Z,63.14
2022-09-28T05:05:18.075Z,64.03
2022-09-28T05:06:18.046Z,64.79
2022-09-28T05:07:18.050Z,63.86
2022-09-28T05:08:18.032Z,63.90
2022-09-28T05:09:18.149Z,64.32
2022-09-28T05:10:18.007Z,65.56
2022-09-28T05:11:17.996Z,64.23
2022-09-28T05:12:17.980Z,64.87
2022-09-28T05:13:17.983Z,65.49
2022-09-28T05:14:17.992Z,66.07
2022-09-28T05:15:17.956Z,65.39
2022-09-28T05:16:17.962Z,65.38
2022-09-28T05:17:17.919Z,66.38
2022-09-28T05:18:17.909Z,66.53
2022-09-28T05:19:18.071Z,63.34
2022-09-28T05:20:17.892Z,64.64
2022-09-28T05:21:17.885Z,63.45
2022-09-28T05:22:17.875Z,64.59
2022-09-28T05:23:17.857Z,65.92
2022-09-28T05:24:17.853Z,65.17
2022-09-28T05:25:17.886Z,64.12
2022-09-28T05:26:17.829Z,64.69
2022-09-28T05:27:17.824Z,64.74
2022-09-28T05:28:17.795Z,63.78
2022-09-28T05:29:17.937Z,65.57
2022-09-28T05:30:18.461Z,64.44
2022-09-28T05:31:17.827Z,63.28
2022-09-28T05:32:17.762Z,64.48
2022-09-28T05:33:17.744Z,64.74
2022-09-28T05:34:17.723Z,65.30
2022-09-28T05:35:17.743Z,63.16
2022-09-28T05:36:17.732Z,63.96
2022-09-28T05:37:17.729Z,63.67
2022-09-28T05:38:17.702Z,64.50
2022-09-28T05:39:18.469Z,64.89
2022-09-28T05:40:17.715Z,65.87
2022-09-28T05:41:17.716Z,64.97
2022-09-28T05:42:17.672Z,63.44
2022-09-28T05:43:17.683Z,63.05
2022-09-28T05:44:17.706Z,63.06
2022-09-28T05:45:17.625Z,63.70
2022-09-28T05:46:17.711Z,64.97
2022-09-28T05:47:17.649Z,63.08
2022-09-28T05:48:17.580Z,63.37
2022-09-28T05:49:17.587Z,64.32
2022-09-28T05:50:17.582Z,63.59
2022-09-28T05:51:17.546Z,63.43
2022-09-28T05:52:17.598Z,62.79
2022-09-28T05:53:17.540Z,63.58
2022-09-28T05:54:17.831Z,63.63
2022-09-28T05:55:17.502Z,62.87
2022-09-28T05:56:17.633Z,61.83
2022-09-28T05:57:17.544Z,64.86
2022-09-28T05:58:17.499Z,62.54
2022-09-28T05:59:17.493Z,62.75
2022-09-28T06:00:17.469Z,62.28
2022-09-28T06:01:17.522Z,64.33
2022-09-28T06:02:17.493Z,61.98
2022-09-28T06:03:17.453Z,64.11
2022-09-28T06:04:17.499Z,64.83
2022-09-28T06:05:17.401Z,61.71
2022-09-28T06:06:17.399Z,61.98
2022-09-28T06:07:17.394Z,63.17
2022-09-28T06:08:17.407Z,63.29
2022-09-28T06:09:17.382Z,63.91
2022-09-28T06:10:17.345Z,63.73
2022-09-28T06:11:17.360Z,63.51
2022-09-28T06:12:17.358Z,63.04
2022-09-28T06:13:17.345Z,63.23
2022-09-28T06:14:17.421Z,64.52
2022-09-28T06:15:17.369Z,63.51
2022-09-28T06:16:17.362Z,64.13
2022-09-28T06:17:17.288Z,64.25
2022-09-28T06:18:17.294Z,62.94
2022-09-28T06:19:17.298Z,61.57
2022-09-28T06:20:17.243Z,63.56
2022-09-28T06:21:17.299Z,62.90
2022-09-28T06:22:17.224Z,63.22
2022-09-28T06:23:17.206Z,64.44
2022-09-28T06:24:17.406Z,62.46
2022-09-28T06:25:17.180Z,62.21
2022-09-28T06:26:17.165Z,63.01
2022-09-28T06:27:17.163Z,61.84
2022-09-28T06:28:17.143Z,58.93
2022-09-28T06:29:19.427Z,59.39
2022-09-28T06:30:17.150Z,58.66
2022-09-28T06:31:17.137Z,58.71
2022-09-28T06:32:17.098Z,56.95
2022-09-28T06:33:17.071Z,56.21
2022-09-28T06:34:17.125Z,57.98
2022-09-28T06:35:17.106Z,58.49
2022-09-28T06:36:17.047Z,56.15
2022-09-28T06:37:17.041Z,57.50
2022-09-28T06:38:17.019Z,57.41
2022-09-28T06:39:17.032Z,55.99
2022-09-28T06:40:17.049Z,55.36
2022-09-28T06:41:17.009Z,54.71
2022-09-28T06:42:16.989Z,55.61
2022-09-28T06:43:16.965Z,54.50
2022-09-28T06:44:17.112Z,55.13
2022-09-28T06:45:16.939Z,54.55
2022-09-28T06:46:16.985Z,55.63
2022-09-28T06:47:16.936Z,54.40
2022-09-28T06:48:16.911Z,55.76
2022-09-28T06:49:19.484Z,56.52
2022-09-28T06:50:16.912Z,55.93
2022-09-28T06:51:17.289Z,54.46
2022-09-28T06:52:16.928Z,52.53
2022-09-28T06:53:16.924Z,54.01
2022-09-28T06:54:17.171Z,55.00
2022-09-28T06:55:16.864Z,54.13
2022-09-28T06:56:16.883Z,54.63
2022-09-28T06:57:16.860Z,54.15
2022-09-28T06:58:16.867Z,54.81
2022-09-28T06:59:16.830Z,53.73
2022-09-28T07:00:16.837Z,53.87
2022-09-28T07:01:16.896Z,53.66
2022-09-28T07:02:16.837Z,51.54
2022-09-28T07:03:16.767Z,52.99
2022-09-28T07:04:17.037Z,56.79
2022-09-28T07:05:21.283Z,52.72
2022-09-28T07:09:33.071Z,54.61
2022-09-28T07:10:29.370Z,53.97
2022-09-28T07:11:29.211Z,53.88
2022-09-28T07:12:29.234Z,54.62
2022-09-28T07:13:48.375Z,53.49
2022-09-28T07:14:46.970Z,54.75
2022-09-28T07:15:29.154Z,54.41
2022-09-28T07:16:41.122Z,55.29
2022-09-28T07:17:29.405Z,51.77
2022-09-28T07:18:29.130Z,51.79
2022-09-28T07:19:29.118Z,55.72
2022-09-28T07:20:29.086Z,51.24
2022-09-28T07:21:30.705Z,56.38
2022-09-28T07:22:40.854Z,54.35
2022-09-28T07:23:29.047Z,55.46
2022-09-28T07:24:29.056Z,54.12
2022-09-28T07:25:29.024Z,54.37
2022-09-28T07:26:29.002Z,52.97
2022-09-28T07:27:29.174Z,52.97
2022-09-28T07:28:28.975Z,53.41
2022-09-28T07:29:28.978Z,56.07
2022-09-28T07:30:29.050Z,52.50
2022-09-28T07:31:28.951Z,52.88
2022-09-28T07:32:28.934Z,52.52
2022-09-28T07:33:28.928Z,53.51
2022-09-28T07:34:28.903Z,54.38
2022-09-28T07:35:28.917Z,52.44
2022-09-28T07:36:28.898Z,50.49
2022-09-28T07:37:28.876Z,54.06
2022-09-28T07:38:28.859Z,53.69
2022-09-28T07:39:28.856Z,53.48
2022-09-28T07:40:30.076Z,53.07
2022-09-28T07:41:29.964Z,55.11
2022-09-28T07:42:29.945Z,52.20
2022-09-28T07:43:29.925Z,53.72
2022-09-28T07:44:29.903Z,50.63
2022-09-28T07:45:29.952Z,51.13
2022-09-28T07:46:29.921Z,53.93
2022-09-28T07:47:34.868Z,52.88
2022-09-28T07:48:29.875Z,53.47
2022-09-28T07:49:29.854Z,51.30
2022-09-28T07:50:29.854Z,51.73
2022-09-28T07:51:29.872Z,53.71
2022-09-28T07:52:29.814Z,52.31
2022-09-28T07:53:29.822Z,52.31
2022-09-28T07:54:29.788Z,52.98
2022-09-28T07:55:29.789Z,54.07
2022-09-28T07:56:29.860Z,53.22
2022-09-28T07:57:29.816Z,54.97
2022-09-28T07:58:29.749Z,56.38
2022-09-28T07:59:29.764Z,54.69
2022-09-28T08:00:33.350Z,54.25
2022-09-28T08:01:29.805Z,53.25
2022-09-28T08:02:29.781Z,52.46
2022-09-28T08:03:30.391Z,52.84
2022-09-28T08:04:29.686Z,54.18
2022-09-28T08:05:30.675Z,52.58
2022-09-28T08:06:29.655Z,52.76
2022-09-28T08:07:29.651Z,53.14
2022-09-28T08:08:29.683Z,56.03
2022-09-28T08:09:29.633Z,53.79
2022-09-28T08:10:29.634Z,53.93
2022-09-28T08:11:29.610Z,52.42
2022-09-28T08:12:29.603Z,53.32
2022-09-28T08:13:29.612Z,55.43
2022-09-28T08:14:29.575Z,52.35
2022-09-28T08:15:29.578Z,52.10
2022-09-28T08:16:29.637Z,51.66
2022-09-28T08:17:29.541Z,54.17
2022-09-28T08:18:29.547Z,54.58
2022-09-28T08:19:29.537Z,52.06
2022-09-28T08:20:29.506Z,51.70
2022-09-28T08:21:29.509Z,55.07
2022-09-28T08:22:29.491Z,59.54
2022-09-28T08:23:29.491Z,60.04
2022-09-28T08:24:29.478Z,61.13
2022-09-28T08:25:29.447Z,60.81
2022-09-28T08:26:29.427Z,57.55
2022-09-28T08:27:29.438Z,59.75
2022-09-28T08:28:29.435Z,61.15
2022-09-28T08:29:29.395Z,61.12
2022-09-28T08:30:29.428Z,59.74
2022-09-28T08:31:29.366Z,59.44
2022-09-28T08:32:29.375Z,60.88
2022-09-28T08:33:29.400Z,59.55
2022-09-28T08:34:29.333Z,61.32
2022-09-28T08:35:29.324Z,60.73
2022-09-28T08:36:29.305Z,58.66
2022-09-28T08:37:29.307Z,58.56
2022-09-28T08:38:29.344Z,59.34
2022-09-28T08:39:29.275Z,56.84
2022-09-28T08:40:29.352Z,55.09
2022-09-28T08:41:29.250Z,54.28
2022-09-28T08:42:29.252Z,55.42
2022-09-28T08:43:29.251Z,56.55
2022-09-28T08:44:29.241Z,57.12
2022-09-28T08:45:29.213Z,57.69
2022-09-28T08:46:29.235Z,56.95
2022-09-28T08:47:29.190Z,57.55
2022-09-28T08:48:29.189Z,55.72
2022-09-28T08:49:29.176Z,56.19
2022-09-28T08:50:29.162Z,60.07
2022-09-28T08:51:29.551Z,57.57
2022-09-28T08:52:29.125Z,56.19
2022-09-28T08:53:29.128Z,57.13
2022-09-28T08:54:29.137Z,60.65
2022-09-28T08:55:29.090Z,59.73
2022-09-28T08:56:29.095Z,59.39
2022-09-28T08:57:29.077Z,60.40
2022-09-28T08:58:29.060Z,60.82
2022-09-28T08:59:29.098Z,61.49
2022-09-28T09:00:29.373Z,62.02
2022-09-28T09:01:29.112Z,61.49
2022-09-28T09:02:29.061Z,62.38
2022-09-28T09:03:29.001Z,63.11
2022-09-28T09:04:28.981Z,62.19
2022-09-28T09:05:28.982Z,62.01
2022-09-28T09:06:28.980Z,60.29
2022-09-28T09:07:28.966Z,60.41
2022-09-28T09:08:28.943Z,62.07
2022-09-28T09:09:28.943Z,63.82
2022-09-28T09:10:28.967Z,63.12
2022-09-28T09:11:28.914Z,61.03
2022-09-28T09:12:28.902Z,61.28
2022-09-28T09:13:28.881Z,59.39
2022-09-28T09:14:28.875Z,62.13
2022-09-28T09:15:28.907Z,60.31
2022-09-28T09:16:28.904Z,61.09
2022-09-28T09:17:29.843Z,59.86
2022-09-28T09:18:28.834Z,61.25
2022-09-28T09:19:28.816Z,61.83
2022-09-28T09:20:28.810Z,61.88
2022-09-28T09:21:28.845Z,63.42
2022-09-28T09:22:28.786Z,62.72
2022-09-28T09:23:28.775Z,61.60
2022-09-28T09:24:28.776Z,63.37
2022-09-28T09:25:28.745Z,64.06
2022-09-28T09:26:28.790Z,65.77
2022-09-28T09:27:28.731Z,62.57
2022-09-28T09:28:28.820Z,62.95
2022-09-28T09:29:28.709Z,62.60
2022-09-28T09:30:31.393Z,61.68
2022-09-28T09:31:28.711Z,62.92
2022-09-28T09:32:28.719Z,61.20
2022-09-28T09:33:28.670Z,62.07
2022-09-28T09:34:28.663Z,60.68
2022-09-28T09:35:31.227Z,62.68
2022-09-28T09:36:28.641Z,63.71
2022-09-28T09:37:28.647Z,62.12
2022-09-28T09:38:28.630Z,64.17
2022-09-28T09:39:28.618Z,64.41
2022-09-28T09:40:28.617Z,64.60
2022-09-28T09:41:28.606Z,63.98
2022-09-28T09:42:28.572Z,64.28
2022-09-28T09:43:31.565Z,64.12
2022-09-28T09:44:28.569Z,64.74
2022-09-28T09:45:28.541Z,65.52
2022-09-28T09:46:29.238Z,66.34
2022-09-28T09:47:28.537Z,66.65
2022-09-28T09:48:28.542Z,64.47
2022-09-28T09:49:28.511Z,64.16
2022-09-28T09:50:28.652Z,67.10
2022-09-28T09:51:28.493Z,65.38
2022-09-28T09:52:28.515Z,65.38
2022-09-28T09:53:28.475Z,64.23
2022-09-28T09:54:28.486Z,65.09
2022-09-28T09:55:30.294Z,63.85
2022-09-28T09:56:28.440Z,63.92
2022-09-28T09:57:28.404Z,61.64
2022-09-28T09:58:28.406Z,59.96
2022-09-28T09:59:28.418Z,57.48
2022-09-28T10:00:28.385Z,57.29
2022-09-28T10:01:28.417Z,58.87
2022-09-28T10:02:28.402Z,58.22
2022-09-28T10:03:28.364Z,56.94
2022-09-28T10:04:28.387Z,55.91
2022-09-28T10:05:28.329Z,55.85
2022-09-28T10:06:28.303Z,55.00
2022-09-28T10:07:28.534Z,56.65
2022-09-28T10:08:28.303Z,56.94
2022-09-28T10:09:28.286Z,57.82
2022-09-28T10:10:28.313Z,54.76
2022-09-28T10:11:28.278Z,56.48
2022-09-28T10:12:28.255Z,53.96
2022-09-28T10:13:28.372Z,54.35
2022-09-28T10:14:28.231Z,54.53
2022-09-28T10:15:28.263Z,55.98
2022-09-28T10:16:28.295Z,59.17
2022-09-28T10:17:28.204Z,60.77
2022-09-28T10:18:28.189Z,63.13
2022-09-28T10:19:28.198Z,61.55
2022-09-28T10:20:28.212Z,62.83
2022-09-28T10:21:28.143Z,61.97
2022-09-28T10:22:28.151Z,60.07
2022-09-28T10:23:28.136Z,60.70
2022-09-28T10:24:28.134Z,60.82
2022-09-28T10:25:28.276Z,60.35
2022-09-28T10:26:28.231Z,58.99
2022-09-28T10:27:28.103Z,58.64
2022-09-28T10:28:28.076Z,58.60
2022-09-28T10:29:28.065Z,58.14
2022-09-28T10:30:28.108Z,58.60
2022-09-28T10:31:28.062Z,57.86
2022-09-28T10:32:28.029Z,57.96
2022-09-28T10:33:28.041Z,59.74
2022-09-28T10:34:28.029Z,60.23
2022-09-28T10:35:28.010Z,57.62
2022-09-28T10:36:28.011Z,55.27
2022-09-28T10:37:27.976Z,54.51
2022-09-28T10:38:27.975Z,56.70
2022-09-28T10:39:27.959Z,55.79
2022-09-28T10:40:28.009Z,54.52
2022-09-28T10:41:28.000Z,55.68
2022-09-28T10:42:27.919Z,56.15
2022-09-28T10:43:27.916Z,55.49
2022-09-28T10:44:27.898Z,56.17
2022-09-28T10:45:27.901Z,54.61
2022-09-28T10:46:27.984Z,54.60
2022-09-28T10:47:27.882Z,54.89
2022-09-28T10:48:27.853Z,58.61
2022-09-28T10:49:27.833Z,59.32
2022-09-28T10:50:27.845Z,59.84
2022-09-28T10:51:27.824Z,61.50
2022-09-28T10:52:27.828Z,59.92
2022-09-28T10:53:27.818Z,58.82
2022-09-28T10:54:27.786Z,60.23
2022-09-28T10:55:27.800Z,60.21
2022-09-28T10:56:27.781Z,60.63
2022-09-28T10:57:27.775Z,59.82
2022-09-28T10:58:27.738Z,60.29
2022-09-28T10:59:27.747Z,60.86
2022-09-28T11:00:27.704Z,58.36
2022-09-28T11:01:27.759Z,59.08
2022-09-28T11:02:29.544Z,60.39
2022-09-28T11:03:27.680Z,61.98
2022-09-28T11:04:27.656Z,62.65
2022-09-28T11:05:27.645Z,63.74
2022-09-28T11:06:27.653Z,64.36
2022-09-28T11:07:27.800Z,64.82
2022-09-28T11:08:27.625Z,63.54
2022-09-28T11:09:30.528Z,61.79
2022-09-28T11:10:27.641Z,63.76
2022-09-28T11:11:27.577Z,62.91
2022-09-28T11:12:27.609Z,63.77
2022-09-28T11:13:29.114Z,64.19
2022-09-28T11:14:27.546Z,64.53
2022-09-28T11:15:27.552Z,64.82
2022-09-28T11:16:27.563Z,62.42
2022-09-28T11:17:27.544Z,62.78
2022-09-28T11:18:27.503Z,62.26
2022-09-28T11:19:27.491Z,64.23
2022-09-28T11:20:28.642Z,63.48
2022-09-28T11:21:27.463Z,63.34
2022-09-28T11:22:27.457Z,63.14
2022-09-28T11:23:27.490Z,63.21
2022-09-28T11:24:27.661Z,61.48
2022-09-28T11:25:27.432Z,60.49
2022-09-28T11:26:27.424Z,61.70
2022-09-28T11:27:27.432Z,60.89
2022-09-28T11:28:27.417Z,62.50
2022-09-28T11:29:27.382Z,59.23
2022-09-28T11:30:27.416Z,62.92
2022-09-28T11:31:27.370Z,62.19
2022-09-28T11:32:27.374Z,60.47
2022-09-28T11:33:27.355Z,62.79
2022-09-28T11:34:36.457Z,64.65
2022-09-28T11:35:27.323Z,62.97
2022-09-28T11:36:27.333Z,61.36
2022-09-28T11:37:27.316Z,60.99
2022-09-28T11:38:27.311Z,63.59
2022-09-28T11:39:27.286Z,62.34
2022-09-28T11:40:27.358Z,62.28
2022-09-28T11:41:28.259Z,63.03
2022-09-28T11:42:27.276Z,63.57
2022-09-28T11:43:27.294Z,62.38
2022-09-28T11:44:30.848Z,62.77
2022-09-28T11:45:27.345Z,64.79
2022-09-28T11:46:27.271Z,61.86
2022-09-28T11:47:27.213Z,63.06
2022-09-28T11:48:27.196Z,61.53
2022-09-28T11:49:27.181Z,61.36
2022-09-28T11:50:27.166Z,61.78
2022-09-28T11:51:27.146Z,62.64
2022-09-28T11:52:27.141Z,64.27
2022-09-28T11:53:27.155Z,65.05
2022-09-28T11:54:27.159Z,63.59
2022-09-28T11:55:27.109Z,63.33
2022-09-28T11:56:27.133Z,62.65
2022-09-28T11:57:27.087Z,62.34
2022-09-28T11:58:27.094Z,62.66
2022-09-28T11:59:27.197Z,61.83
2022-09-28T12:00:27.069Z,61.84
2022-09-28T12:01:27.060Z,63.26
2022-09-28T12:02:27.087Z,64.23
2022-09-28T12:03:27.180Z,61.96
2022-09-28T12:04:27.008Z,61.99
2022-09-28T12:05:27.023Z,63.86
2022-09-28T12:06:26.989Z,62.13
2022-09-28T12:07:26.982Z,64.25
2022-09-28T12:08:27.007Z,65.12
2022-09-28T12:09:26.961Z,64.75
2022-09-28T12:10:26.953Z,64.68
2022-09-28T12:11:26.940Z,65.02
2022-09-28T12:12:26.931Z,64.86
2022-09-28T12:13:26.975Z,66.22
2022-09-28T12:14:26.924Z,65.71
2022-09-28T12:15:26.896Z,65.05
2022-09-28T12:17:00.443Z,65.19
2022-09-28T12:17:28.932Z,64.16
2022-09-28T12:18:26.903Z,62.88
2022-09-28T12:19:26.864Z,63.35
2022-09-28T12:20:26.846Z,63.15
2022-09-28T12:21:26.844Z,63.12
2022-09-28T12:22:26.831Z,65.82
2022-09-28T12:23:26.818Z,63.83
2022-09-28T12:24:26.820Z,65.64
2022-09-28T12:25:26.793Z,64.61
2022-09-28T12:26:26.781Z,64.44
2022-09-28T12:27:26.775Z,65.34
2022-09-28T12:28:26.764Z,64.92
2022-09-28T12:29:26.752Z,66.05
2022-09-28T12:30:26.738Z,64.34
2022-09-28T12:31:26.719Z,65.22
2022-09-28T12:32:26.725Z,64.64
2022-09-28T12:33:26.693Z,64.96
2022-09-28T12:34:26.714Z,64.36
2022-09-28T12:35:26.689Z,64.50
2022-09-28T12:36:26.672Z,66.11
2022-09-28T12:37:26.662Z,66.07
2022-09-28T12:38:26.650Z,65.95
2022-09-28T12:39:40.936Z,67.56
2022-09-28T12:40:27.085Z,67.76
2022-09-28T12:41:26.622Z,67.12
2022-09-28T12:42:26.623Z,66.37
2022-09-28T12:43:26.618Z,66.39
2022-09-28T12:44:26.645Z,66.46
2022-09-28T12:45:26.579Z,66.03
2022-09-28T12:46:26.606Z,65.73
2022-09-28T12:47:26.563Z,66.08
2022-09-28T12:48:26.552Z,67.44
2022-09-28T12:50:47.656Z,68.30
2022-09-28T12:51:28.505Z,67.16
2022-09-28T12:52:26.575Z,66.20
2022-09-28T12:53:26.481Z,66.34
2022-09-28T12:54:26.484Z,66.43
2022-09-28T12:55:26.490Z,66.92
2022-09-28T12:56:26.450Z,66.78